Adaville, Iowa
Current Conditions -  °F | °C
As of 4:55 AM on Friday 24 Oct 2014 (Local Time) from KLRJ Reporting Station
Clear Clear  
Wind Chill: 55°   Ceiling: Unl
Heat Index: 55°   Visibility: 10mi
Dew Point: 52°   Wind: 6mph
Humidity: 88%   Direction: 210°SSW
Pressure: 29.88"   Gusts: NA
Location:  42.7082°N, 96.485°W
Report Text: KLRJ 240955Z AUTO 21005KT 10SM CLR 13/11 A2988 RMK AO2
Loading
Personal Weather Stations






























Interactive Weather Map
Tropical Storm Tracking
New forecast layout! Learn more

10-Day Weather Forecast

Advertisements
Track Severe Weather on mobile